CYAV weather

Winnipeg / St. Andrews Airport
Winnipeg, Manitoba, Canada

Public forecast

Using degrees Celsius for public forecast. Weather courtesy of forecast.io.

Closest aviation weather report (METAR) to Winnipeg / St. Andrews Airport

Closest report is Winnipeg / James Armstrong Richardson International Airport, 11.9 nm (22.0 km) SW. Retrieved 2019/12/16 02:00 UTC (6 minutes ago):

CYWG 160200Z 26010KT 15SM -SN BKN033 M12/M15 A2986 RMK SC8 SLP136

Closest aviation forecast (TAF) to Winnipeg / St. Andrews Airport

Closest forecast is Winnipeg / James Armstrong Richardson International Airport, 11.9 nm (22.0 km) SW. Retrieved 2019-12-16 00:39 UTC (1 hour ago):

TAF CYWG 152338Z 1600/1624 21008KT P6SM -SN OVC030 TEMPO 1600/1603 5SM -SN BECMG 1600/1602 29010KT FM160300 29010KT P6SM BKN030 TEMPO 1603/1608 5SM -SN OVC020 FM160800 28008KT P6SM FEW020 BECMG 1612/1614 19010KT FM161800 19012KT 4SM -SN SCT008 OVC020 RMK NXT FCST BY 160600Z